Impacts METAR Board
IDs:

KPDX - Portland Intl Arpt, OR, US

Updated at: 1500 UTC 16 Feb 2019
Potential Impact None Slight Moderate High
Time 16/03Z 16/04Z 16/05Z 16/06Z 16/07Z 16/08Z 16/09Z 16/10Z 16/11Z 16/12Z 16/13Z 16/14Z 16/15Z
Temp40 40 40 39 40 39 38 38 38 38 38 38 38
Dewpt36 37 38 38 38 38 37 37 37 37 38 38 37
Altim29.69 29.70 29.71 29.71 29.72 29.73 29.73 29.74 29.75 29.76 29.78 29.80 29.82
VIS10 10 8 10 9 10 10 10 4 2 10 10 9
CIG36 32 25 24 21 21 18 17 13 8 9 6 19
CoverOVCOVCOVCOVCOVCOVCOVCOVCOVCOVCOVCOVCOVC
FltCatVFRVFRMVFRMVFRMVFRMVFRMVFRMVFRMVFRIFRIFRIFRMVFR
WX-----RA-RA-RA---RA-RA-RA BR-RA BR-RA-DZ-DZ
WDir12011013011012011011011011011010010090
WSpd9 10 8 7 11 8 10 9 9 8 6 7 6
WGst-- -- -- -- -- -- -- -- -- -- -- -- --
Raw hourly METARs
KPDX 160253Z 12009KT 10SM BKN036 OVC045 04/02 A2969 RMK AO2 RAE40 SLP054 P0002 60003 T00440022 53004
KPDX 160353Z 11010KT 10SM SCT026 BKN032 OVC040 04/03 A2970 RMK AO2 RAB21E50 SLP055 P0001 T00440028
KPDX 160505Z 13008KT 8SM -RA BKN025 BKN031 OVC042 04/03 A2971 RMK AO2 P0001 T00440033
KPDX 160553Z 11007KT 10SM -RA BKN024 BKN032 OVC040 04/03 A2971 RMK AO2 SLP061 P0003 60007 T00390033 10061 20039 53007
KPDX 160653Z 12011KT 9SM -RA OVC021 04/03 A2972 RMK AO2 SLP064 P0004 T00440033
KPDX 160753Z 11008KT 10SM OVC021 04/03 A2973 RMK AO2 RAE32 SLP066 P0001 T00390033 400940028
KPDX 160853Z 11010KT 10SM -RA OVC018 03/03 A2973 RMK AO2 RAB30 SLP067 P0000 60005 T00330028 51006
KPDX 160953Z 11009KT 10SM -RA OVC017 03/03 A2974 RMK AO2 RAE0856B41 SLP070 P0000 T00330028
KPDX 161053Z 11009KT 4SM -RA BR BKN013 OVC019 03/03 A2975 RMK AO2 SLP073 P0000 T00330028
KPDX 161153Z 11008KT 2SM -RA BR SCT004 BKN008 OVC019 03/03 A2976 RMK AO2 SLP077 P0001 60006 70016 T00330028 10044 20033 51007
KPDX 161253Z 10006KT 10SM -RA BKN009 OVC015 03/03 A2978 RMK AO2 CIG 006V011 SLP083 P0001 T00330033
KPDX 161353Z 10007KT 10SM -DZ FEW003 BKN006 OVC020 03/03 A2980 RMK AO2 RAE25DZB47 SLP092 P0000 T00330033
KPDX 161453Z 09006KT 9SM -DZ SCT005 BKN019 OVC024 03/03 A2982 RMK AO2 SLP099 P0000 60001 T00330028 53021



Page loaded:  15:23 UTC  |   07:23 AM Pacific  |   08:23 AM Mountain  |   09:23 AM Central  |   10:23 AM Eastern

 

ADVISORIES

FORECASTS

FORECASTS

OBSERVATIONS

USER TOOLS

ABOUT US